Time,TemperatureF,DewpointF,PressureIn,WindDirection,WindDirectionDegrees,WindSpeedMPH,WindSpeedGustMPH,Humidity,HourlyPrecipIn,Conditions,Clouds,dailyrainin,SoftwareType,DateUTC
2013-06-26 00:22:00,83.0,75.0,30.06,SE,129,4.0,5.0,78,0.00,,,0.00,,2013-06-26 04:22:00,
2013-06-26 00:43:00,82.0,75.0,30.06,SE,134,9.0,9.0,79,0.00,,,0.00,,2013-06-26 04:43:00,
2013-06-26 00:53:00,80.0,76.0,30.05,SE,139,1.0,0.0,89,0.00,,,0.00,,2013-06-26 04:53:00,
2013-06-26 01:34:00,80.0,76.0,30.04,ENE,62,0.0,0.0,88,1.70,,,0.00,,2013-06-26 05:34:00,
2013-06-26 01:43:00,80.0,76.0,30.04,ESE,104,1.0,4.0,88,1.70,,,0.00,,2013-06-26 05:43:00,
2013-06-26 02:34:00,80.0,75.0,30.02,East,100,1.0,3.0,86,0.00,,,0.00,,2013-06-26 06:34:00,
2013-06-26 02:43:00,81.0,76.0,30.01,ENE,62,1.0,0.0,85,0.00,,,0.00,,2013-06-26 06:43:00,
2013-06-26 02:53:00,81.0,76.0,30.01,East,101,0.0,4.0,86,0.00,,,0.00,,2013-06-26 06:53:00,
2013-06-26 03:01:00,81.0,76.0,30.00,SE,131,3.0,3.0,86,0.00,,,0.00,,2013-06-26 07:01:00,
2013-06-26 03:11:00,80.0,75.0,30.00,South,187,4.0,4.0,85,0.00,,,0.00,,2013-06-26 07:11:00,
2013-06-26 03:43:00,80.0,75.0,29.99,SE,131,4.0,8.0,84,0.00,,,0.00,,2013-06-26 07:43:00,
2013-06-26 03:53:00,80.0,75.0,29.99,SE,127,5.0,5.0,85,0.00,,,0.00,,2013-06-26 07:53:00,
2013-06-26 04:01:00,80.0,75.0,29.99,SE,134,4.0,7.0,84,0.00,,,0.00,,2013-06-26 08:01:00,
2013-06-26 04:33:00,81.0,75.0,29.99,East,90,4.0,0.0,81,0.00,,,0.00,,2013-06-26 08:33:00,
2013-06-26 04:42:00,81.0,75.0,29.99,East,79,4.0,7.0,81,0.00,,,0.00,,2013-06-26 08:42:00,
2013-06-26 05:01:00,80.0,73.0,29.99,South,176,5.0,5.0,80,0.00,,,0.00,,2013-06-26 09:01:00,
2013-06-26 05:43:00,81.0,74.0,30.01,SSE,149,2.0,2.0,79,0.00,,,0.00,,2013-06-26 09:43:00,
2013-06-26 06:22:00,80.0,73.0,30.01,SSW,194,0.0,1.0,79,0.00,,,0.00,,2013-06-26 10:22:00,
2013-06-26 07:44:00,79.0,74.0,30.02,SW,235,2.0,3.0,86,0.00,,,0.00,,2013-06-26 11:44:00,
2013-06-26 07:52:00,79.0,75.0,30.02,West,260,2.0,0.0,87,0.00,,,0.00,,2013-06-26 11:52:00,
2013-06-26 08:42:00,82.0,73.0,30.03,South,187,6.0,7.0,75,0.00,,,0.00,,2013-06-26 12:42:00,
2013-06-26 08:52:00,82.0,73.0,30.03,ESE,107,5.0,5.0,75,0.00,,,0.00,,2013-06-26 12:52:00,
2013-06-26 09:34:00,84.0,74.0,30.04,WSW,242,5.0,7.0,71,0.00,,,0.00,,2013-06-26 13:34:00,
2013-06-26 10:02:00,86.0,75.0,30.04,SE,124,5.0,8.0,70,0.00,,,0.00,,2013-06-26 14:02:00,
2013-06-26 10:34:00,86.0,75.0,30.04,SE,127,5.0,5.0,69,0.00,,,0.00,,2013-06-26 14:34:00,
2013-06-26 10:42:00,86.0,74.0,30.04,SE,146,4.0,5.0,68,0.00,,,0.00,,2013-06-26 14:42:00,
2013-06-26 10:53:00,86.0,74.0,30.04,SSE,167,3.0,4.0,67,0.00,,,0.00,,2013-06-26 14:53:00,
2013-06-26 11:02:00,85.0,73.0,30.04,SE,139,7.0,8.0,68,0.00,,,0.00,,2013-06-26 15:02:00,
2013-06-26 11:11:00,86.0,74.0,30.04,SSW,200,3.0,5.0,67,0.00,,,0.00,,2013-06-26 15:11:00,
2013-06-26 11:34:00,86.0,73.0,30.05,SSE,160,8.0,9.0,66,0.00,,,0.00,,2013-06-26 15:34:00,
2013-06-26 11:44:00,86.0,74.0,30.05,SE,135,6.0,9.0,67,0.00,,,0.00,,2013-06-26 15:44:00,
2013-06-26 12:01:00,86.0,73.0,30.04,SE,128,7.0,9.0,66,0.00,,,0.00,,2013-06-26 16:01:00,
2013-06-26 12:34:00,86.0,72.0,30.05,ESE,118,5.0,6.0,64,0.00,,,0.00,,2013-06-26 16:34:00,
2013-06-26 12:43:00,87.0,72.0,30.06,ESE,110,6.0,6.0,62,0.00,,,0.00,,2013-06-26 16:43:00,
2013-06-26 13:43:00,88.0,74.0,30.06,SSE,166,7.0,7.0,63,0.00,,,0.00,,2013-06-26 17:43:00,
2013-06-26 13:52:00,88.0,74.0,30.06,South,169,4.0,6.0,63,0.00,,,0.00,,2013-06-26 17:52:00,
2013-06-26 14:43:00,87.0,72.0,30.03,SSE,150,6.0,6.0,61,0.00,,,0.00,,2013-06-26 18:43:00,
2013-06-26 16:01:00,85.0,73.0,30.03,ESE,115,6.0,6.0,67,0.00,,,0.00,,2013-06-26 20:01:00,
2013-06-26 16:33:00,85.0,74.0,30.03,SE,131,8.0,8.0,70,0.00,,,0.00,,2013-06-26 20:33:00,
2013-06-26 16:43:00,85.0,74.0,30.03,SE,132,4.0,9.0,70,0.00,,,0.00,,2013-06-26 20:43:00,
2013-06-26 16:52:00,85.0,74.0,30.03,SSE,163,5.0,5.0,69,0.00,,,0.00,,2013-06-26 20:52:00,
2013-06-26 17:33:00,84.0,75.0,30.03,SE,132,7.0,10.0,74,0.00,,,0.00,,2013-06-26 21:33:00,
2013-06-26 17:43:00,85.0,75.0,30.03,ESE,111,5.0,6.0,73,0.00,,,0.00,,2013-06-26 21:43:00,
2013-06-26 18:43:00,80.0,75.0,30.01,SE,129,0.0,0.0,86,0.00,,,0.00,,2013-06-26 22:43:00,
2013-06-26 18:52:00,80.0,75.0,30.01,ENE,63,1.0,0.0,85,0.00,,,0.00,,2013-06-26 22:52:00,
2013-06-26 19:11:00,81.0,76.0,30.00,ENE,62,1.0,0.0,86,0.00,,,0.00,,2013-06-26 23:11:00,
2013-06-26 19:34:00,82.0,75.0,30.00,SE,134,3.0,7.0,80,0.20,,,0.00,,2013-06-26 23:34:00,
2013-06-26 19:43:00,82.0,75.0,30.01,ESE,105,0.0,0.0,79,0.20,,,0.00,,2013-06-26 23:43:00,
2013-06-26 19:52:00,82.0,74.0,30.01,SE,141,0.0,0.0,77,0.20,,,0.00,,2013-06-26 23:52:00,
2013-06-26 20:01:00,82.0,74.0,30.01,SE,136,1.0,0.0,76,0.20,,,0.00,,2013-06-27 00:01:00,
2013-06-26 20:12:00,83.0,75.0,30.01,SSE,148,0.0,0.0,76,0.00,,,0.00,,2013-06-27 00:12:00,
2013-06-26 20:33:00,82.0,74.0,30.02,East,91,1.0,1.0,77,0.00,,,0.00,,2013-06-27 00:33:00,
2013-06-26 20:42:00,82.0,74.0,30.03,SSW,204,1.0,0.0,77,0.00,,,0.00,,2013-06-27 00:42:00,
2013-06-26 20:53:00,81.0,73.0,30.03,SSE,159,2.0,0.0,78,0.00,,,0.00,,2013-06-27 00:53:00,
2013-06-26 21:01:00,81.0,73.0,30.03,SSE,159,2.0,0.0,78,0.00,,,0.00,,2013-06-27 01:01:00,
2013-06-26 21:11:00,82.0,75.0,30.03,South,180,1.0,2.0,79,0.00,,,0.00,,2013-06-27 01:11:00,
2013-06-26 21:21:00,82.0,74.0,30.03,South,169,2.0,2.0,78,0.00,,,0.00,,2013-06-27 01:21:00,
2013-06-26 21:32:00,81.0,73.0,30.03,SSE,158,1.0,2.0,78,0.00,,,0.00,,2013-06-27 01:32:00,
2013-06-26 21:43:00,81.0,74.0,30.03,South,169,0.0,0.0,79,0.00,,,0.00,,2013-06-27 01:43:00,
2013-06-26 21:53:00,81.0,74.0,30.03,SSE,153,1.0,1.0,79,0.00,,,0.00,,2013-06-27 01:53:00,
2013-06-26 22:01:00,82.0,74.0,30.03,ENE,73,0.0,0.0,77,0.00,,,0.00,,2013-06-27 02:01:00,
2013-06-26 22:11:00,82.0,74.0,30.03,SSW,197,1.0,6.0,77,0.00,,,0.00,,2013-06-27 02:11:00,
2013-06-26 22:42:00,81.0,73.0,30.03,SSW,195,0.0,0.0,78,0.00,,,0.00,,2013-06-27 02:42:00,
2013-06-26 22:52:00,82.0,74.0,30.03,SW,215,1.0,0.0,77,0.00,,,0.00,,2013-06-27 02:52:00,
2013-06-26 23:11:00,82.0,74.0,30.03,SSW,211,0.0,1.0,77,0.00,,,0.00,,2013-06-27 03:11:00,
2013-06-26 23:32:00,82.0,74.0,30.03,East,80,2.0,2.0,78,0.00,,,0.00,,2013-06-27 03:32:00,